Time;durP1;ratioP1;P1;durP2;ratioP2;P2;SDS_P1;SDS_P2;PMS_P1;PMS_P2;Temp;Humidity;BMP_temperature;BMP_pressure;BME280_temperature;BME280_humidity;BME280_pressure;Samples;Min_cycle;Max_cycle;Signal;HPM_P1;HPM_P2
2021/07/01 00:00:30;;;;;;;11.23;10.20;;;14.10;99.90;;;;;;5012342;28;20546;-68
2021/07/01 00:02:55;;;;;;;13.40;10.30;;;14.20;99.90;;;;;;5012513;28;20246;-66
2021/07/01 00:05:21;;;;;;;10.90;9.90;;;14.30;99.90;;;;;;5012363;28;20212;-67
2021/07/01 00:07:48;;;;;;;10.50;9.50;;;14.30;99.90;;;;;;5012029;28;20235;-67
2021/07/01 00:10:15;;;;;;;10.50;9.60;;;14.30;99.90;;;;;;5012302;28;20250;-68
2021/07/01 00:12:41;;;;;;;11.77;10.70;;;14.30;99.90;;;;;;5012196;28;20232;-67
2021/07/01 00:15:09;;;;;;;10.97;9.90;;;14.30;99.90;;;;;;5012119;28;20220;-67
2021/07/01 00:17:35;;;;;;;10.07;9.27;;;14.30;99.90;;;;;;5011739;28;20179;-67
2021/07/01 00:20:02;;;;;;;11.67;10.27;;;14.20;99.90;;;;;;5012092;28;20188;-68
2021/07/01 00:22:28;;;;;;;12.40;10.63;;;14.20;99.90;;;;;;5012109;28;20686;-66
2021/07/01 00:24:53;;;;;;;12.60;11.23;;;14.10;99.90;;;;;;5011939;28;20184;-67
2021/07/01 00:27:19;;;;;;;13.00;11.50;;;14.10;99.90;;;;;;5011969;28;20230;-68
2021/07/01 00:29:45;;;;;;;12.60;11.33;;;14.20;99.90;;;;;;5011403;28;20638;-68
2021/07/01 00:32:10;;;;;;;12.83;11.60;;;14.20;99.90;;;;;;5012022;28;20212;-67
2021/07/01 00:34:36;;;;;;;11.73;10.50;;;14.20;99.90;;;;;;5011478;28;20620;-67
2021/07/01 00:37:02;;;;;;;12.43;11.27;;;14.20;99.90;;;;;;5011504;28;20164;-68
2021/07/01 00:39:27;;;;;;;11.87;10.67;;;14.20;99.90;;;;;;5011550;28;20199;-68
2021/07/01 00:41:53;;;;;;;13.80;11.43;;;14.20;99.90;;;;;;5011868;28;20670;-67
2021/07/01 00:44:18;;;;;;;13.57;12.10;;;14.20;99.90;;;;;;5011617;28;20763;-67
2021/07/01 00:46:44;;;;;;;13.13;11.63;;;14.10;99.90;;;;;;5011727;28;20190;-68
2021/07/01 00:49:10;;;;;;;13.07;11.77;;;14.10;99.90;;;;;;5011657;28;20204;-67
2021/07/01 00:51:35;;;;;;;13.50;11.87;;;14.10;99.90;;;;;;5011640;28;20982;-67
2021/07/01 00:54:02;;;;;;;14.93;11.83;;;14.10;99.90;;;;;;5011773;28;20230;-68
2021/07/01 00:56:28;;;;;;;13.80;11.30;;;14.20;99.90;;;;;;5011595;28;20586;-67
2021/07/01 00:58:55;;;;;;;11.80;10.70;;;14.20;99.90;;;;;;5011471;28;20204;-67
2021/07/01 01:01:21;;;;;;;12.00;10.80;;;14.20;99.90;;;;;;5011721;28;20243;-67
2021/07/01 01:03:48;;;;;;;11.93;10.83;;;14.10;99.90;;;;;;5011481;28;20227;-68
2021/07/01 01:06:14;;;;;;;12.20;11.00;;;14.10;99.90;;;;;;5011539;28;20176;-67
2021/07/01 01:08:40;;;;;;;13.00;11.63;;;14.10;99.90;;;;;;5011302;28;20188;-67
2021/07/01 01:11:06;;;;;;;13.10;11.83;;;14.00;99.90;;;;;;5011615;28;20173;-67
2021/07/01 01:13:32;;;;;;;12.00;10.90;;;13.90;99.90;;;;;;5011269;28;20269;-67
2021/07/01 01:16:01;;;;;;;19.00;12.57;;;13.90;99.90;;;;;;5011427;28;20570;-67
2021/07/01 01:18:27;;;;;;;13.57;12.13;;;13.90;99.90;;;;;;5011170;28;20200;-67
2021/07/01 01:20:55;;;;;;;12.43;10.67;;;13.90;99.90;;;;;;5011742;28;20326;-67
2021/07/01 01:23:22;;;;;;;10.43;9.53;;;13.90;99.90;;;;;;5011335;28;20192;-67
2021/07/01 01:25:49;;;;;;;11.83;10.83;;;13.90;99.90;;;;;;5011312;28;20164;-67
2021/07/01 01:28:16;;;;;;;13.37;10.83;;;14.00;99.90;;;;;;5011277;28;20262;-67
2021/07/01 01:30:42;;;;;;;11.40;10.20;;;14.00;99.90;;;;;;5011537;28;20677;-68
2021/07/01 01:33:08;;;;;;;12.27;10.97;;;14.10;99.90;;;;;;5011227;28;20250;-68
2021/07/01 01:35:34;;;;;;;12.63;11.33;;;14.00;99.90;;;;;;5011415;28;20607;-66
2021/07/01 01:38:01;;;;;;;13.97;12.37;;;14.00;99.90;;;;;;5010905;28;20231;-67
2021/07/01 01:40:27;;;;;;;13.23;11.27;;;14.00;99.90;;;;;;5011441;28;20168;-67
2021/07/01 01:42:53;;;;;;;14.17;12.67;;;14.00;99.90;;;;;;5011081;28;20200;-68
2021/07/01 01:45:19;;;;;;;14.17;12.33;;;14.10;99.90;;;;;;5011390;28;20179;-66
2021/07/01 01:47:49;;;;;;;13.70;12.40;;;14.10;99.90;;;;;;5013431;28;20176;-67
2021/07/01 01:50:22;;;;;;;15.87;11.00;;;14.10;99.90;;;;;;5014869;28;20172;-66
2021/07/01 01:52:48;;;;;;;12.33;10.93;;;14.10;99.90;;;;;;5014768;28;20242;-67
2021/07/01 01:55:14;;;;;;;13.53;12.27;;;14.10;99.90;;;;;;5014976;28;20176;-68
2021/07/01 01:57:47;;;;;;;13.50;12.30;;;14.10;99.90;;;;;;5014064;28;20187;-68
2021/07/01 02:00:14;;;;;;;14.43;12.43;;;14.10;99.90;;;;;;5014826;28;20287;-67
2021/07/01 02:02:41;;;;;;;11.60;10.40;;;14.10;99.90;;;;;;5014560;28;20200;-68
2021/07/01 02:07:35;;;;;;;12.97;11.47;;;14.20;99.90;;;;;;4993051;28;20209;-68
2021/07/01 02:10:07;;;;;;;12.63;11.13;;;14.20;99.90;;;;;;4995197;28;20177;-71
2021/07/01 02:12:33;;;;;;;13.80;12.27;;;14.20;99.90;;;;;;4995897;28;20204;-69
2021/07/01 02:14:59;;;;;;;15.13;11.40;;;14.30;99.90;;;;;;4995668;28;20561;-71
2021/07/01 02:17:25;;;;;;;12.17;11.03;;;14.40;99.90;;;;;;4995524;28;20181;-70
2021/07/01 02:19:51;;;;;;;11.50;10.20;;;14.30;99.90;;;;;;4996415;28;20411;-69
2021/07/01 02:22:17;;;;;;;11.07;10.10;;;14.30;99.90;;;;;;4996336;28;20634;-70
2021/07/01 02:24:44;;;;;;;11.50;10.37;;;14.30;99.90;;;;;;4996212;28;20586;-69
2021/07/01 02:27:10;;;;;;;11.70;10.50;;;14.30;99.90;;;;;;4995105;28;20729;-69
2021/07/01 02:29:36;;;;;;;13.37;11.03;;;14.30;99.90;;;;;;4995266;28;20173;-70
2021/07/01 02:32:03;;;;;;;11.70;10.60;;;14.30;99.90;;;;;;4994899;28;20211;-72
2021/07/01 02:34:28;;;;;;;12.93;11.53;;;14.20;99.90;;;;;;4995947;28;20185;-71
2021/07/01 02:36:54;;;;;;;14.10;12.30;;;14.30;99.90;;;;;;4995786;28;20200;-69
2021/07/01 02:39:20;;;;;;;13.63;12.23;;;14.20;99.90;;;;;;4995966;28;20204;-69
2021/07/01 02:41:46;;;;;;;13.83;12.33;;;14.20;99.90;;;;;;4995757;28;20228;-71
2021/07/01 02:44:11;;;;;;;13.50;12.20;;;14.20;99.90;;;;;;4996011;28;20647;-69
2021/07/01 02:46:37;;;;;;;13.03;11.60;;;14.20;99.90;;;;;;4995678;28;20235;-69
2021/07/01 02:49:03;;;;;;;14.27;12.70;;;14.20;99.90;;;;;;4995683;28;20634;-70
2021/07/01 02:51:28;;;;;;;13.30;11.40;;;14.20;99.90;;;;;;4995862;28;20196;-70
2021/07/01 02:53:54;;;;;;;13.60;12.30;;;14.10;99.90;;;;;;4995811;28;20568;-68
2021/07/01 02:56:21;;;;;;;13.33;12.03;;;14.10;99.90;;;;;;4994752;28;20271;-70
2021/07/01 02:58:47;;;;;;;14.50;13.00;;;14.10;99.90;;;;;;4994643;28;20200;-69
2021/07/01 03:01:14;;;;;;;13.90;12.40;;;14.10;99.90;;;;;;4995185;28;20528;-67
2021/07/01 03:03:40;;;;;;;15.83;13.33;;;14.10;99.90;;;;;;4993954;28;20179;-69
2021/07/01 03:06:07;;;;;;;12.60;11.33;;;14.20;99.90;;;;;;4994476;28;20631;-68
2021/07/01 03:08:32;;;;;;;14.03;12.60;;;14.10;99.90;;;;;;4995494;28;20189;-67
2021/07/01 03:10:58;;;;;;;13.10;11.53;;;14.10;99.90;;;;;;4995180;28;20180;-70
2021/07/01 03:13:24;;;;;;;13.77;12.30;;;14.10;99.90;;;;;;4995109;28;20208;-66
2021/07/01 03:15:49;;;;;;;13.27;11.33;;;14.10;99.90;;;;;;4994781;28;20204;-69
2021/07/01 03:18:15;;;;;;;16.47;12.00;;;14.20;99.90;;;;;;4995326;28;20204;-72
2021/07/01 03:20:40;;;;;;;16.40;12.20;;;14.20;99.90;;;;;;4995343;28;20177;-70
2021/07/01 03:23:06;;;;;;;16.10;12.03;;;14.20;99.90;;;;;;4994828;28;20177;-70
2021/07/01 03:25:32;;;;;;;13.67;12.27;;;14.20;99.90;;;;;;4994777;28;20192;-70
2021/07/01 03:27:57;;;;;;;12.37;11.10;;;14.20;99.90;;;;;;4994470;28;20183;-73
2021/07/01 03:30:23;;;;;;;13.77;12.37;;;14.20;99.90;;;;;;4995009;28;20658;-69
2021/07/01 03:32:49;;;;;;;13.60;12.20;;;14.20;99.90;;;;;;4994967;28;20181;-68
2021/07/01 03:35:15;;;;;;;13.33;11.90;;;14.20;99.90;;;;;;4995155;28;20655;-69
2021/07/01 03:37:40;;;;;;;13.80;12.33;;;14.20;99.90;;;;;;4994574;28;20177;-70
2021/07/01 03:40:10;;;;;;;14.37;10.63;;;14.20;99.90;;;;;;4995026;28;20236;-68
2021/07/01 03:42:36;;;;;;;12.90;11.70;;;14.10;99.90;;;;;;4994589;28;20192;-68
2021/07/01 03:45:03;;;;;;;13.70;11.97;;;14.10;99.90;;;;;;4993615;28;20205;-70
2021/07/01 03:47:29;;;;;;;15.43;13.17;;;14.00;99.90;;;;;;4992909;28;20220;-69
2021/07/01 03:49:54;;;;;;;14.20;12.70;;;14.00;99.90;;;;;;4995144;28;20630;-69
2021/07/01 03:52:20;;;;;;;13.17;11.87;;;14.10;99.90;;;;;;4993854;28;20184;-66
2021/07/01 03:54:46;;;;;;;14.87;12.57;;;14.10;99.90;;;;;;4992996;28;20541;-66
2021/07/01 03:57:11;;;;;;;15.10;12.87;;;14.00;99.90;;;;;;4992720;28;20216;-66
2021/07/01 03:59:37;;;;;;;18.30;14.00;;;14.10;99.90;;;;;;4992849;28;20209;-66
2021/07/01 04:02:03;;;;;;;18.50;15.90;;;14.00;99.90;;;;;;4992702;28;20180;-66
2021/07/01 04:04:28;;;;;;;18.43;13.83;;;14.00;99.90;;;;;;4993035;28;20200;-66
2021/07/01 04:06:54;;;;;;;18.47;15.00;;;14.00;99.90;;;;;;4992280;28;20291;-66
2021/07/01 04:09:20;;;;;;;21.97;15.67;;;14.00;99.90;;;;;;4992778;28;20251;-66
2021/07/01 04:11:45;;;;;;;21.93;16.43;;;13.90;99.90;;;;;;4992394;28;20177;-67
2021/07/01 04:14:12;;;;;;;20.03;15.23;;;14.00;99.90;;;;;;4992860;28;20169;-67
2021/07/01 04:16:38;;;;;;;17.73;14.47;;;13.90;99.90;;;;;;4992390;28;20669;-66
2021/07/01 04:19:04;;;;;;;21.33;15.50;;;13.90;99.90;;;;;;4992766;28;20215;-67
2021/07/01 04:21:29;;;;;;;18.97;15.63;;;13.80;99.90;;;;;;4992414;28;20626;-67
2021/07/01 04:23:57;;;;;;;20.03;16.10;;;13.80;99.90;;;;;;4992512;28;20181;-67
2021/07/01 04:26:23;;;;;;;20.83;15.90;;;13.70;99.90;;;;;;4991084;28;20197;-66
2021/07/01 04:28:50;;;;;;;19.30;15.27;;;13.70;99.90;;;;;;4992268;28;20292;-66
2021/07/01 04:31:16;;;;;;;18.47;14.30;;;13.70;99.90;;;;;;4992613;28;20669;-66
2021/07/01 04:33:42;;;;;;;16.63;14.80;;;13.60;99.90;;;;;;4992256;28;20176;-66
2021/07/01 04:36:08;;;;;;;15.03;13.03;;;13.60;99.90;;;;;;4992181;28;20196;-66
2021/07/01 04:38:33;;;;;;;21.33;15.33;;;13.60;99.90;;;;;;4992016;28;20563;-66
2021/07/01 04:40:59;;;;;;;19.83;15.00;;;13.50;99.90;;;;;;4992505;28;20173;-66
2021/07/01 04:43:25;;;;;;;24.53;22.23;;;13.60;99.90;;;;;;4992050;28;20284;-67
2021/07/01 04:45:50;;;;;;;19.80;15.13;;;13.50;99.90;;;;;;4991927;28;20562;-67
2021/07/01 04:48:16;;;;;;;18.60;15.53;;;13.60;99.90;;;;;;4992081;28;20235;-66
2021/07/01 04:50:41;;;;;;;22.37;14.77;;;13.60;99.90;;;;;;4992067;28;20936;-66
2021/07/01 04:53:07;;;;;;;20.10;14.73;;;13.60;99.90;;;;;;4992219;28;20185;-66
2021/07/01 04:55:33;;;;;;;17.63;15.03;;;13.60;99.90;;;;;;4991921;28;20209;-67
2021/07/01 04:57:58;;;;;;;18.37;15.67;;;13.60;99.90;;;;;;4992110;28;20203;-66
2021/07/01 05:00:24;;;;;;;19.33;13.87;;;13.60;99.90;;;;;;4991946;28;20169;-66
2021/07/01 05:02:49;;;;;;;19.13;13.43;;;13.60;99.90;;;;;;4992291;28;20517;-66
2021/07/01 05:05:15;;;;;;;20.87;14.33;;;13.70;99.90;;;;;;4996443;28;20193;-66
2021/07/01 05:07:45;;;;;;;18.07;14.47;;;13.70;99.90;;;;;;4995211;28;20631;-66
2021/07/01 05:10:12;;;;;;;22.60;15.23;;;13.80;99.90;;;;;;4999803;28;20697;-66
2021/07/01 05:12:38;;;;;;;22.43;14.70;;;13.80;99.90;;;;;;4991549;28;20184;-67
2021/07/01 05:15:04;;;;;;;25.03;15.40;;;13.90;99.90;;;;;;4992284;28;20786;-67
2021/07/01 05:17:33;;;;;;;16.77;14.83;;;13.90;99.90;;;;;;4991656;28;20235;-67
2021/07/01 05:19:58;;;;;;;18.20;14.17;;;13.90;99.90;;;;;;4992027;28;20607;-67
2021/07/01 05:22:24;;;;;;;20.20;15.57;;;13.80;99.90;;;;;;4993674;28;20215;-67
2021/07/01 05:24:50;;;;;;;23.47;16.33;;;13.60;99.90;;;;;;4995909;28;20228;-67
2021/07/01 05:27:15;;;;;;;16.93;14.77;;;13.60;99.90;;;;;;4995396;28;20231;-67
2021/07/01 05:29:41;;;;;;;16.40;14.00;;;13.60;99.90;;;;;;4995774;28;20203;-67
2021/07/01 05:32:07;;;;;;;20.47;15.33;;;13.60;99.90;;;;;;4995541;28;20192;-67
2021/07/01 05:34:32;;;;;;;16.20;12.43;;;13.60;99.90;;;;;;4995817;28;20185;-67
2021/07/01 05:36:58;;;;;;;19.17;15.07;;;13.60;99.90;;;;;;4995235;28;20231;-67
2021/07/01 05:39:24;;;;;;;17.80;14.30;;;13.60;99.90;;;;;;4995350;28;20211;-67
2021/07/01 05:41:49;;;;;;;20.03;14.27;;;13.50;99.90;;;;;;4995250;28;20177;-67
2021/07/01 05:44:15;;;;;;;17.50;14.10;;;13.60;99.90;;;;;;4995578;28;20236;-67
2021/07/01 05:46:41;;;;;;;16.93;15.13;;;13.50;99.90;;;;;;4994943;28;20204;-67
2021/07/01 05:49:06;;;;;;;24.67;16.40;;;13.50;99.90;;;;;;4995308;28;20262;-67
2021/07/01 05:51:34;;;;;;;24.17;16.23;;;13.50;99.90;;;;;;4995006;28;20191;-67
2021/07/01 05:54:12;;;;;;;22.83;16.33;;;13.60;99.90;;;;;;4996289;28;20252;-67
2021/07/01 05:56:38;;;;;;;20.00;16.37;;;13.50;99.90;;;;;;4999450;28;20304;-68
2021/07/01 05:59:09;;;;;;;24.10;15.33;;;13.60;99.90;;;;;;4995235;28;20287;-67
2021/07/01 06:01:35;;;;;;;20.23;15.10;;;13.50;99.90;;;;;;4994744;28;20627;-67
2021/07/01 06:04:05;;;;;;;15.20;13.60;;;13.50;99.90;;;;;;4995263;28;20181;-67
2021/07/01 06:06:34;;;;;;;15.93;13.67;;;13.40;99.90;;;;;;4994334;28;20213;-67
2021/07/01 06:09:02;;;;;;;18.87;14.73;;;13.40;99.90;;;;;;4994940;28;20185;-67
2021/07/01 06:11:28;;;;;;;23.43;15.27;;;13.50;99.90;;;;;;4994387;28;20246;-67
2021/07/01 06:13:55;;;;;;;19.50;14.47;;;13.50;99.90;;;;;;4994310;28;20601;-67
2021/07/01 06:16:24;;;;;;;21.90;16.03;;;13.50;99.90;;;;;;5010115;28;20662;-67
2021/07/01 06:18:52;;;;;;;17.53;14.73;;;13.50;99.90;;;;;;5011368;28;20204;-67
2021/07/01 06:21:18;;;;;;;20.07;15.47;;;13.40;99.90;;;;;;4994787;28;20188;-67
2021/07/01 06:23:47;;;;;;;23.03;15.43;;;13.40;99.90;;;;;;4994540;28;20177;-67
2021/07/01 06:26:13;;;;;;;25.63;15.50;;;13.50;99.90;;;;;;4994414;28;20193;-67
2021/07/01 06:28:42;;;;;;;26.40;15.73;;;13.40;99.90;;;;;;4994278;28;20193;-67
2021/07/01 06:31:09;;;;;;;18.00;13.80;;;13.40;99.90;;;;;;4994818;28;20262;-67
2021/07/01 06:33:38;;;;;;;18.53;14.60;;;13.40;99.90;;;;;;4993029;28;20580;-67
2021/07/01 06:36:05;;;;;;;19.23;14.30;;;13.40;99.90;;;;;;4994306;28;20200;-67
2021/07/01 06:38:32;;;;;;;14.73;13.07;;;13.40;99.90;;;;;;4994240;28;20204;-66
2021/07/01 06:41:01;;;;;;;14.93;13.10;;;13.40;99.90;;;;;;4994774;28;20631;-66
2021/07/01 06:43:27;;;;;;;23.20;13.07;;;13.40;99.90;;;;;;4994098;28;20558;-67
2021/07/01 06:46:00;;;;;;;17.70;12.30;;;13.40;99.90;;;;;;4993849;28;20208;-67
2021/07/01 06:48:26;;;;;;;19.13;12.93;;;13.50;99.90;;;;;;4992815;28;20200;-67
2021/07/01 06:50:58;;;;;;;14.93;13.30;;;13.50;99.90;;;;;;4994049;28;20200;-67
2021/07/01 06:53:26;;;;;;;15.17;12.70;;;13.60;99.90;;;;;;4994108;28;20184;-67
2021/07/01 06:55:53;;;;;;;13.50;11.27;;;13.80;99.90;;;;;;4993474;28;20236;-67
2021/07/01 06:58:19;;;;;;;15.73;12.37;;;13.80;99.90;;;;;;4993923;28;20259;-67
2021/07/01 07:00:44;;;;;;;19.20;13.00;;;13.90;99.90;;;;;;4993859;28;20247;-67
2021/07/01 07:03:18;;;;;;;13.93;12.20;;;13.90;99.90;;;;;;4992695;28;20181;-67
2021/07/01 07:05:53;;;;;;;14.57;13.07;;;13.90;99.90;;;;;;4992126;28;20299;-67
2021/07/01 07:08:19;;;;;;;17.57;13.70;;;14.00;99.90;;;;;;4993971;28;20191;-67
2021/07/01 07:10:45;;;;;;;13.20;12.03;;;14.00;99.90;;;;;;4992408;28;20865;-67
2021/07/01 07:13:12;;;;;;;12.20;10.30;;;14.10;99.90;;;;;;4993837;28;20281;-67
2021/07/01 07:15:39;;;;;;;15.30;10.90;;;14.20;99.90;;;;;;4993364;28;20211;-67
2021/07/01 07:18:23;;;;;;;14.03;10.87;;;14.20;99.90;;;;;;4993653;28;20195;-67
2021/07/01 07:20:58;;;;;;;15.03;10.77;;;14.40;99.90;;;;;;4993300;28;20435;-67
2021/07/01 07:23:36;;;;;;;14.77;10.73;;;14.60;99.90;;;;;;4993768;28;20176;-67
2021/07/01 07:26:07;;;;;;;11.20;9.50;;;14.80;99.90;;;;;;4973944;28;20276;-67
2021/07/01 07:28:36;;;;;;;12.97;9.30;;;14.90;99.90;;;;;;4974078;28;20201;-67
2021/07/01 07:31:05;;;;;;;13.30;12.10;;;14.80;99.90;;;;;;4993061;28;20187;-67
2021/07/01 07:33:31;;;;;;;10.57;9.67;;;14.90;99.90;;;;;;4993360;28;20177;-67
2021/07/01 07:35:56;;;;;;;10.67;9.57;;;14.90;99.90;;;;;;4991594;28;20197;-67
2021/07/01 07:38:26;;;;;;;9.93;8.93;;;15.10;99.90;;;;;;4993422;28;20569;-67
2021/07/01 07:40:53;;;;;;;10.63;9.33;;;15.20;99.90;;;;;;4991823;28;20231;-67
2021/07/01 07:43:20;;;;;;;11.77;10.20;;;15.30;99.90;;;;;;4993397;28;20200;-67
2021/07/01 07:45:50;;;;;;;11.67;10.43;;;15.40;99.90;;;;;;4992508;28;20205;-67
2021/07/01 07:48:16;;;;;;;10.43;9.43;;;15.50;99.90;;;;;;4993032;28;20550;-67
2021/07/01 07:50:48;;;;;;;10.37;9.47;;;15.60;99.90;;;;;;4992715;28;20189;-67
2021/07/01 07:53:20;;;;;;;10.33;9.20;;;15.50;99.90;;;;;;4992600;28;20181;-67
2021/07/01 07:55:52;;;;;;;10.23;9.40;;;15.40;99.90;;;;;;4992475;28;20688;-67
2021/07/01 07:58:22;;;;;;;10.07;9.20;;;15.50;99.90;;;;;;4992790;28;20197;-67
2021/07/01 08:00:48;;;;;;;10.97;9.33;;;15.60;99.90;;;;;;4992763;28;20177;-67
2021/07/01 08:03:15;;;;;;;12.00;9.20;;;15.70;99.90;;;;;;4992989;28;20239;-66
2021/07/01 08:05:42;;;;;;;10.10;9.10;;;15.60;99.90;;;;;;4991937;28;20212;-67
2021/07/01 08:08:12;;;;;;;9.90;8.93;;;15.50;99.90;;;;;;4992025;28;20223;-67
2021/07/01 08:10:40;;;;;;;10.50;9.63;;;15.40;99.90;;;;;;4991560;28;20786;-67
2021/07/01 08:13:07;;;;;;;10.63;9.63;;;15.40;99.90;;;;;;4992176;28;20173;-67
2021/07/01 08:15:36;;;;;;;10.37;9.57;;;15.50;99.90;;;;;;4990687;28;20192;-67
2021/07/01 08:18:03;;;;;;;10.73;9.63;;;15.40;99.90;;;;;;4991560;28;20643;-67
2021/07/01 08:20:29;;;;;;;11.53;10.33;;;15.50;99.90;;;;;;4990258;28;20680;-67
2021/07/01 08:22:56;;;;;;;10.97;9.17;;;15.40;99.90;;;;;;4992219;28;20169;-67
2021/07/01 08:25:23;;;;;;;12.07;9.67;;;15.40;99.90;;;;;;4991653;28;20255;-67
2021/07/01 08:27:50;;;;;;;11.77;9.07;;;15.30;99.90;;;;;;4991387;28;20173;-67
2021/07/01 08:30:19;;;;;;;10.67;9.57;;;15.30;99.90;;;;;;4991412;28;20579;-67
2021/07/01 08:32:56;;;;;;;9.43;8.63;;;15.20;99.90;;;;;;4991608;28;20176;-67
2021/07/01 08:35:24;;;;;;;11.50;9.40;;;15.20;99.90;;;;;;4990528;28;20715;-67
2021/07/01 08:37:52;;;;;;;11.63;8.87;;;15.10;99.90;;;;;;4991114;28;20176;-67
2021/07/01 08:40:20;;;;;;;13.73;9.20;;;15.20;99.90;;;;;;4991269;28;20204;-67
2021/07/01 08:42:49;;;;;;;11.17;9.90;;;15.20;99.90;;;;;;4991621;28;20161;-67
2021/07/01 08:45:15;;;;;;;10.00;9.00;;;15.40;99.90;;;;;;4991340;28;20239;-67
2021/07/01 08:47:43;;;;;;;12.03;9.63;;;15.50;99.90;;;;;;4991232;28;20180;-67
2021/07/01 08:50:17;;;;;;;13.90;10.77;;;15.70;99.90;;;;;;4991204;28;20184;-67
2021/07/01 08:52:48;;;;;;;12.10;9.40;;;15.70;99.90;;;;;;4991377;28;20299;-67
2021/07/01 08:55:18;;;;;;;10.50;9.53;;;15.80;99.90;;;;;;4991209;28;20270;-67
2021/07/01 08:57:49;;;;;;;10.60;9.63;;;15.70;99.90;;;;;;4988948;28;20635;-68
2021/07/01 09:00:16;;;;;;;10.73;9.27;;;15.60;99.90;;;;;;4991208;28;20229;-67
2021/07/01 09:03:06;;;;;;;11.77;9.93;;;15.60;99.90;;;;;;4991350;28;20188;-67
2021/07/01 09:05:36;;;;;;;16.07;9.20;;;15.50;99.90;;;;;;4953931;28;1086187;-67
2021/07/01 09:08:10;;;;;;;9.87;8.90;;;15.50;99.90;;;;;;4991862;28;20176;-67
2021/07/01 09:10:37;;;;;;;9.73;8.87;;;15.60;99.90;;;;;;4997869;28;20177;-67
2021/07/01 09:13:08;;;;;;;12.70;9.97;;;15.80;99.90;;;;;;5008298;28;20404;-67
2021/07/01 09:15:35;;;;;;;9.90;9.00;;;15.80;99.90;;;;;;5009953;28;20207;-67
2021/07/01 09:18:01;;;;;;;10.47;8.27;;;15.80;99.90;;;;;;4991994;28;20177;-67
2021/07/01 09:20:34;;;;;;;10.60;8.73;;;15.80;99.90;;;;;;4991668;28;20204;-67
2021/07/01 09:23:01;;;;;;;9.50;8.47;;;15.70;99.90;;;;;;4992093;28;20177;-67
2021/07/01 09:25:26;;;;;;;9.33;8.53;;;15.70;99.90;;;;;;4991601;28;20607;-67
2021/07/01 09:27:55;;;;;;;9.50;8.60;;;15.70;99.90;;;;;;4991624;28;20177;-67
2021/07/01 09:30:26;;;;;;;11.10;8.90;;;15.80;99.90;;;;;;4991558;28;20250;-67
2021/07/01 09:32:56;;;;;;;10.27;9.20;;;16.00;99.90;;;;;;4991812;28;20213;-67
2021/07/01 09:35:24;;;;;;;11.93;8.70;;;16.10;99.90;;;;;;4991561;28;20224;-67
2021/07/01 09:37:52;;;;;;;10.60;9.57;;;16.10;99.90;;;;;;4991675;28;20177;-67
2021/07/01 09:40:20;;;;;;;9.47;8.60;;;16.20;99.90;;;;;;4991377;28;20208;-67
2021/07/01 09:42:54;;;;;;;11.07;9.50;;;16.20;99.90;;;;;;4991847;28;20207;-67
2021/07/01 09:45:24;;;;;;;12.87;10.17;;;16.20;99.90;;;;;;4991658;28;20682;-67
2021/07/01 09:48:09;;;;;;;10.20;9.20;;;16.20;99.90;;;;;;4991427;28;20177;-67
2021/07/01 09:50:45;;;;;;;11.10;8.43;;;16.00;99.90;;;;;;4991628;28;20264;-66
2021/07/01 09:53:32;;;;;;;10.30;9.23;;;15.70;99.90;;;;;;4991760;28;20204;-66
2021/07/01 09:56:03;;;;;;;9.20;8.23;;;15.60;99.90;;;;;;4991578;28;20484;-67
2021/07/01 09:58:31;;;;;;;8.37;7.80;;;15.50;99.90;;;;;;4991364;28;20204;-67
2021/07/01 10:00:58;;;;;;;9.97;8.80;;;15.20;99.90;;;;;;4991799;28;20174;-67
2021/07/01 10:03:24;;;;;;;10.37;9.47;;;15.20;99.90;;;;;;4991726;28;20548;-67
2021/07/01 10:05:50;;;;;;;8.73;7.90;;;15.20;99.90;;;;;;4991684;28;20217;-67
2021/07/01 10:08:16;;;;;;;9.27;8.40;;;15.20;99.90;;;;;;4991949;28;20177;-67
2021/07/01 10:10:45;;;;;;;10.37;8.27;;;15.30;99.90;;;;;;4994994;28;20271;-67
2021/07/01 10:13:12;;;;;;;10.77;9.50;;;15.30;99.90;;;;;;4994946;28;20188;-67
2021/07/01 10:15:40;;;;;;;8.57;7.77;;;15.30;99.90;;;;;;4993637;28;20798;-67
2021/07/01 10:18:09;;;;;;;11.63;9.13;;;15.30;99.90;;;;;;4994418;28;20188;-67
2021/07/01 10:20:40;;;;;;;9.50;8.70;;;15.30;99.90;;;;;;4993411;28;20208;-67
2021/07/01 10:23:25;;;;;;;9.47;8.67;;;15.40;99.90;;;;;;4993523;28;20208;-67
2021/07/01 10:25:54;;;;;;;10.70;8.97;;;15.50;99.90;;;;;;4993060;28;20200;-67
2021/07/01 10:28:22;;;;;;;10.80;9.17;;;15.60;99.90;;;;;;4994479;28;20665;-66
2021/07/01 10:31:17;;;;;;;10.77;9.67;;;15.70;99.90;;;;;;4994514;28;20191;-67
2021/07/01 10:33:43;;;;;;;10.03;9.13;;;15.80;99.90;;;;;;4962471;28;20205;-67
2021/07/01 10:36:25;;;;;;;11.70;10.80;;;15.90;99.90;;;;;;4974798;28;20193;-67
2021/07/01 10:38:52;;;;;;;10.60;9.60;;;16.00;99.90;;;;;;4974963;28;20227;-67
2021/07/01 10:41:30;;;;;;;9.60;8.70;;;16.10;99.90;;;;;;4978768;28;20177;-67
2021/07/01 10:43:56;;;;;;;9.20;8.47;;;16.20;99.90;;;;;;4974867;28;20185;-67
2021/07/01 10:46:36;;;;;;;11.40;8.77;;;16.10;99.90;;;;;;4978267;28;20204;-67
2021/07/01 10:49:02;;;;;;;9.47;8.67;;;16.20;99.90;;;;;;4994301;28;20203;-67
2021/07/01 10:51:29;;;;;;;9.37;8.57;;;16.30;99.90;;;;;;4994189;28;20193;-67
2021/07/01 10:54:13;;;;;;;11.33;9.33;;;16.50;99.90;;;;;;4993943;28;20205;-67
2021/07/01 10:56:45;;;;;;;8.87;8.17;;;16.60;99.90;;;;;;4974514;28;20333;-67
2021/07/01 10:59:12;;;;;;;9.50;8.50;;;16.60;99.90;;;;;;4976490;28;20205;-67
2021/07/01 11:01:41;;;;;;;9.00;7.97;;;16.40;99.90;;;;;;4993978;28;20169;-67
2021/07/01 11:04:15;;;;;;;9.90;9.10;;;16.30;99.90;;;;;;4991902;28;20235;-67
2021/07/01 11:06:56;;;;;;;9.60;8.70;;;16.30;99.90;;;;;;4992861;28;20203;-67
2021/07/01 11:09:22;;;;;;;9.57;8.77;;;16.40;99.90;;;;;;4993707;28;20246;-67
2021/07/01 11:11:59;;;;;;;9.60;8.90;;;16.30;99.90;;;;;;4993797;28;20183;-67
2021/07/01 11:14:41;;;;;;;9.73;8.70;;;16.20;99.90;;;;;;4993583;28;20259;-67
2021/07/01 11:17:07;;;;;;;10.40;9.53;;;16.20;99.90;;;;;;4993538;28;20596;-67
2021/07/01 11:19:41;;;;;;;10.27;9.37;;;16.20;99.90;;;;;;4992776;28;20204;-68
2021/07/01 11:22:07;;;;;;;10.00;9.10;;;16.10;99.90;;;;;;4993457;28;20220;-67
2021/07/01 11:24:37;;;;;;;10.30;9.23;;;16.10;99.90;;;;;;4993361;28;20581;-67
2021/07/01 11:27:03;;;;;;;10.13;9.33;;;16.20;99.90;;;;;;4993014;28;20204;-67
2021/07/01 11:29:58;;;;;;;9.67;8.70;;;16.20;99.90;;;;;;4993353;28;20211;-67
2021/07/01 11:32:25;;;;;;;10.40;9.03;;;16.20;99.90;;;;;;4965473;28;20237;-67
2021/07/01 11:34:53;;;;;;;12.00;11.00;;;16.20;99.90;;;;;;4977207;28;20228;-67
2021/07/01 11:37:36;;;;;;;11.50;10.40;;;16.10;99.90;;;;;;4993100;28;20272;-67
2021/07/01 11:40:18;;;;;;;9.33;8.50;;;16.10;99.90;;;;;;4993087;28;20295;-67
2021/07/01 11:42:45;;;;;;;10.27;9.20;;;16.10;99.90;;;;;;4991842;28;20256;-67
2021/07/01 11:45:11;;;;;;;10.23;9.33;;;15.90;99.90;;;;;;4992653;28;20283;-66
2021/07/01 11:47:39;;;;;;;10.03;8.90;;;15.90;99.90;;;;;;4992723;28;20177;-67
2021/07/01 11:50:05;;;;;;;9.00;8.30;;;15.90;99.90;;;;;;4992834;28;20192;-67
2021/07/01 11:52:32;;;;;;;9.47;8.77;;;16.00;99.90;;;;;;4992997;28;20181;-67
2021/07/01 11:55:01;;;;;;;9.93;8.93;;;16.00;99.90;;;;;;4992893;28;20177;-67
2021/07/01 11:57:28;;;;;;;9.80;8.80;;;16.00;99.90;;;;;;4992656;28;20664;-67
2021/07/01 11:59:55;;;;;;;9.17;8.40;;;16.10;99.90;;;;;;4992641;28;20243;-67
2021/07/01 12:02:21;;;;;;;9.97;9.17;;;16.10;99.90;;;;;;4992912;28;20500;-67
2021/07/01 12:04:48;;;;;;;10.90;8.67;;;15.90;99.90;;;;;;4992974;28;20177;-67
2021/07/01 12:07:30;;;;;;;10.50;9.37;;;15.80;99.90;;;;;;5007293;28;20287;-67
2021/07/01 12:09:57;;;;;;;12.03;11.03;;;15.80;99.90;;;;;;4992365;28;20188;-67
2021/07/01 12:12:32;;;;;;;10.67;9.77;;;15.60;99.90;;;;;;4992806;28;20576;-67
2021/07/01 12:15:01;;;;;;;12.63;10.33;;;15.40;99.90;;;;;;4992514;28;20192;-67
2021/07/01 12:17:47;;;;;;;15.47;11.17;;;15.20;99.90;;;;;;4972964;28;20189;-67
2021/07/01 12:20:28;;;;;;;12.83;11.73;;;15.10;99.90;;;;;;4974652;28;20295;-67
2021/07/01 12:22:54;;;;;;;11.63;10.43;;;15.00;99.90;;;;;;4992681;28;20176;-67
2021/07/01 12:25:26;;;;;;;12.90;10.37;;;14.80;99.90;;;;;;4992283;28;20205;-67
2021/07/01 12:28:24;;;;;;;11.13;10.07;;;14.70;99.90;;;;;;4992299;28;20192;-67
2021/07/01 12:31:04;;;;;;;12.00;10.87;;;14.60;99.90;;;;;;4991363;28;20221;-67
2021/07/01 12:33:53;;;;;;;10.80;9.70;;;14.60;99.90;;;;;;4992360;28;20172;-67
2021/07/01 12:36:42;;;;;;;12.17;11.07;;;14.80;99.90;;;;;;4991972;28;20670;-67
2021/07/01 12:39:10;;;;;;;15.27;11.27;;;14.90;99.90;;;;;;4992286;28;20284;-67